sensor_id;sensor_type;location;lat;lon;timestamp;temperature;humidity
1806;DHT22;901;48.142;11.516;2022-10-16T00:01:32;13.40;99.90
1806;DHT22;901;48.142;11.516;2022-10-16T00:04:00;13.40;99.90
1806;DHT22;901;48.142;11.516;2022-10-16T00:06:28;13.40;99.90
1806;DHT22;901;48.142;11.516;2022-10-16T00:08:57;13.40;99.90
1806;DHT22;901;48.142;11.516;2022-10-16T00:11:26;13.30;99.90
1806;DHT22;901;48.142;11.516;2022-10-16T00:13:56;13.30;99.90
1806;DHT22;901;48.142;11.516;2022-10-16T00:16:24;13.20;99.90
1806;DHT22;901;48.142;11.516;2022-10-16T00:18:51;13.20;99.90
1806;DHT22;901;48.142;11.516;2022-10-16T00:21:19;13.20;99.90
1806;DHT22;901;48.142;11.516;2022-10-16T00:23:49;13.20;99.90
1806;DHT22;901;48.142;11.516;2022-10-16T00:26:18;13.20;99.90
1806;DHT22;901;48.142;11.516;2022-10-16T00:28:46;13.20;99.90
1806;DHT22;901;48.142;11.516;2022-10-16T00:31:14;13.20;99.90
1806;DHT22;901;48.142;11.516;2022-10-16T00:33:40;13.20;99.90
1806;DHT22;901;48.142;11.516;2022-10-16T00:36:10;13.20;99.90
1806;DHT22;901;48.142;11.516;2022-10-16T00:38:37;13.20;99.90
1806;DHT22;901;48.142;11.516;2022-10-16T00:41:05;13.10;99.90
1806;DHT22;901;48.142;11.516;2022-10-16T00:43:36;13.10;99.90
1806;DHT22;901;48.142;11.516;2022-10-16T00:46:08;13.20;99.90
1806;DHT22;901;48.142;11.516;2022-10-16T00:48:36;13.20;99.90
1806;DHT22;901;48.142;11.516;2022-10-16T00:51:04;13.20;99.90
1806;DHT22;901;48.142;11.516;2022-10-16T00:53:31;13.20;99.90
1806;DHT22;901;48.142;11.516;2022-10-16T00:55:57;13.20;99.90
1806;DHT22;901;48.142;11.516;2022-10-16T00:58:24;13.20;99.90
1806;DHT22;901;48.142;11.516;2022-10-16T01:00:53;13.20;99.90
1806;DHT22;901;48.142;11.516;2022-10-16T01:03:25;13.20;99.90
1806;DHT22;901;48.142;11.516;2022-10-16T01:06:02;13.20;99.90
1806;DHT22;901;48.142;11.516;2022-10-16T01:08:39;13.20;99.90
1806;DHT22;901;48.142;11.516;2022-10-16T01:11:15;13.20;99.90
1806;DHT22;901;48.142;11.516;2022-10-16T01:13:48;13.20;99.90
1806;DHT22;901;48.142;11.516;2022-10-16T01:16:22;13.20;99.90
1806;DHT22;901;48.142;11.516;2022-10-16T01:18:56;13.20;99.90
1806;DHT22;901;48.142;11.516;2022-10-16T01:21:27;13.20;99.90
1806;DHT22;901;48.142;11.516;2022-10-16T01:24:03;13.10;99.90
1806;DHT22;901;48.142;11.516;2022-10-16T01:29:25;13.10;99.90
1806;DHT22;901;48.142;11.516;2022-10-16T01:31:58;13.10;99.90
1806;DHT22;901;48.142;11.516;2022-10-16T01:34:31;13.10;99.90
1806;DHT22;901;48.142;11.516;2022-10-16T01:37:03;13.20;99.90
1806;DHT22;901;48.142;11.516;2022-10-16T01:39:35;13.20;99.90
1806;DHT22;901;48.142;11.516;2022-10-16T01:42:06;13.20;99.90
1806;DHT22;901;48.142;11.516;2022-10-16T01:44:37;13.20;99.90
1806;DHT22;901;48.142;11.516;2022-10-16T01:47:05;13.20;99.90
1806;DHT22;901;48.142;11.516;2022-10-16T01:49:36;13.20;99.90
1806;DHT22;901;48.142;11.516;2022-10-16T01:52:06;13.20;99.90
1806;DHT22;901;48.142;11.516;2022-10-16T01:54:36;13.20;99.90
1806;DHT22;901;48.142;11.516;2022-10-16T01:57:04;13.20;99.90
1806;DHT22;901;48.142;11.516;2022-10-16T01:59:35;13.20;99.90
1806;DHT22;901;48.142;11.516;2022-10-16T02:02:08;13.30;99.90
1806;DHT22;901;48.142;11.516;2022-10-16T02:04:39;13.30;99.90
1806;DHT22;901;48.142;11.516;2022-10-16T02:07:07;13.30;99.90
1806;DHT22;901;48.142;11.516;2022-10-16T02:09:34;13.20;99.90
1806;DHT22;901;48.142;11.516;2022-10-16T02:12:06;13.20;99.90
1806;DHT22;901;48.142;11.516;2022-10-16T02:14:38;13.20;99.90
1806;DHT22;901;48.142;11.516;2022-10-16T02:17:12;13.20;99.90
1806;DHT22;901;48.142;11.516;2022-10-16T02:19:39;13.20;99.90
1806;DHT22;901;48.142;11.516;2022-10-16T02:22:09;13.20;99.90
1806;DHT22;901;48.142;11.516;2022-10-16T02:24:40;13.20;99.90
1806;DHT22;901;48.142;11.516;2022-10-16T02:27:13;13.20;99.90
1806;DHT22;901;48.142;11.516;2022-10-16T02:29:47;13.20;99.90
1806;DHT22;901;48.142;11.516;2022-10-16T02:32:19;13.20;99.90
1806;DHT22;901;48.142;11.516;2022-10-16T02:34:48;13.20;99.90
1806;DHT22;901;48.142;11.516;2022-10-16T02:37:16;13.20;99.90
1806;DHT22;901;48.142;11.516;2022-10-16T02:39:44;13.20;99.90
1806;DHT22;901;48.142;11.516;2022-10-16T02:42:12;13.10;99.90
1806;DHT22;901;48.142;11.516;2022-10-16T02:44:39;13.20;99.90
1806;DHT22;901;48.142;11.516;2022-10-16T02:47:06;13.20;99.90
1806;DHT22;901;48.142;11.516;2022-10-16T02:49:34;13.20;99.90
1806;DHT22;901;48.142;11.516;2022-10-16T02:52:01;13.10;99.90
1806;DHT22;901;48.142;11.516;2022-10-16T02:54:28;13.20;99.90
1806;DHT22;901;48.142;11.516;2022-10-16T02:56:54;13.10;99.90
1806;DHT22;901;48.142;11.516;2022-10-16T02:59:21;13.10;99.90
1806;DHT22;901;48.142;11.516;2022-10-16T03:01:48;13.10;99.90
1806;DHT22;901;48.142;11.516;2022-10-16T03:04:15;13.10;99.90
1806;DHT22;901;48.142;11.516;2022-10-16T03:06:43;13.10;99.90
1806;DHT22;901;48.142;11.516;2022-10-16T03:09:10;13.10;99.90
1806;DHT22;901;48.142;11.516;2022-10-16T03:11:36;13.00;99.90
1806;DHT22;901;48.142;11.516;2022-10-16T03:14:03;13.00;99.90
1806;DHT22;901;48.142;11.516;2022-10-16T03:16:30;13.00;99.90
1806;DHT22;901;48.142;11.516;2022-10-16T03:18:57;13.00;99.90
1806;DHT22;901;48.142;11.516;2022-10-16T03:21:23;13.00;99.90
1806;DHT22;901;48.142;11.516;2022-10-16T03:23:51;13.00;99.90
1806;DHT22;901;48.142;11.516;2022-10-16T03:26:18;13.00;99.90
1806;DHT22;901;48.142;11.516;2022-10-16T03:28:45;13.10;99.90
1806;DHT22;901;48.142;11.516;2022-10-16T03:31:12;13.10;99.90
1806;DHT22;901;48.142;11.516;2022-10-16T03:33:39;13.20;99.90
1806;DHT22;901;48.142;11.516;2022-10-16T03:36:05;13.20;99.90
1806;DHT22;901;48.142;11.516;2022-10-16T03:38:33;13.20;99.90
1806;DHT22;901;48.142;11.516;2022-10-16T03:41:01;13.30;99.90
1806;DHT22;901;48.142;11.516;2022-10-16T03:43:29;13.30;99.90
1806;DHT22;901;48.142;11.516;2022-10-16T03:45:56;13.40;99.90
1806;DHT22;901;48.142;11.516;2022-10-16T03:48:22;13.40;99.90
1806;DHT22;901;48.142;11.516;2022-10-16T03:50:49;13.50;99.90
1806;DHT22;901;48.142;11.516;2022-10-16T03:53:17;13.60;99.90
1806;DHT22;901;48.142;11.516;2022-10-16T03:55:44;13.60;99.90
1806;DHT22;901;48.142;11.516;2022-10-16T03:58:12;13.60;99.90
1806;DHT22;901;48.142;11.516;2022-10-16T04:00:40;13.60;99.90
1806;DHT22;901;48.142;11.516;2022-10-16T04:03:07;13.70;99.90
1806;DHT22;901;48.142;11.516;2022-10-16T04:05:34;13.70;99.90
1806;DHT22;901;48.142;11.516;2022-10-16T04:08:01;13.80;99.90
1806;DHT22;901;48.142;11.516;2022-10-16T04:10:27;13.80;99.90
1806;DHT22;901;48.142;11.516;2022-10-16T04:12:54;13.90;99.90
1806;DHT22;901;48.142;11.516;2022-10-16T04:15:23;13.80;99.90
1806;DHT22;901;48.142;11.516;2022-10-16T04:17:50;13.90;99.90
1806;DHT22;901;48.142;11.516;2022-10-16T04:20:18;13.90;99.90
1806;DHT22;901;48.142;11.516;2022-10-16T04:22:45;13.90;99.90
1806;DHT22;901;48.142;11.516;2022-10-16T04:25:11;14.00;99.90
1806;DHT22;901;48.142;11.516;2022-10-16T04:27:38;14.00;99.90
1806;DHT22;901;48.142;11.516;2022-10-16T04:30:06;14.00;99.90
1806;DHT22;901;48.142;11.516;2022-10-16T04:32:35;14.10;99.90
1806;DHT22;901;48.142;11.516;2022-10-16T04:35:01;14.10;99.90
1806;DHT22;901;48.142;11.516;2022-10-16T04:37:29;14.10;99.90
1806;DHT22;901;48.142;11.516;2022-10-16T04:39:56;14.10;99.90
1806;DHT22;901;48.142;11.516;2022-10-16T04:42:23;14.20;99.90
1806;DHT22;901;48.142;11.516;2022-10-16T04:44:50;14.20;99.90
1806;DHT22;901;48.142;11.516;2022-10-16T04:47:16;14.20;99.90
1806;DHT22;901;48.142;11.516;2022-10-16T04:49:44;14.20;99.90
1806;DHT22;901;48.142;11.516;2022-10-16T04:52:11;14.20;99.90
1806;DHT22;901;48.142;11.516;2022-10-16T04:54:38;14.20;99.90
1806;DHT22;901;48.142;11.516;2022-10-16T04:57:05;14.10;99.90
1806;DHT22;901;48.142;11.516;2022-10-16T04:59:32;14.20;99.90
1806;DHT22;901;48.142;11.516;2022-10-16T05:01:58;14.20;99.90
1806;DHT22;901;48.142;11.516;2022-10-16T05:04:25;14.30;99.90
1806;DHT22;901;48.142;11.516;2022-10-16T05:06:53;14.30;99.90
1806;DHT22;901;48.142;11.516;2022-10-16T05:09:20;14.30;99.90
1806;DHT22;901;48.142;11.516;2022-10-16T05:11:47;14.30;99.90
1806;DHT22;901;48.142;11.516;2022-10-16T05:14:14;14.30;99.90
1806;DHT22;901;48.142;11.516;2022-10-16T05:16:40;14.40;99.90
1806;DHT22;901;48.142;11.516;2022-10-16T05:19:07;14.40;99.90
1806;DHT22;901;48.142;11.516;2022-10-16T05:21:34;14.40;99.90
1806;DHT22;901;48.142;11.516;2022-10-16T05:24:02;14.40;99.90
1806;DHT22;901;48.142;11.516;2022-10-16T05:26:29;14.40;99.90
1806;DHT22;901;48.142;11.516;2022-10-16T05:28:56;14.40;99.90
1806;DHT22;901;48.142;11.516;2022-10-16T05:31:23;14.40;99.90
1806;DHT22;901;48.142;11.516;2022-10-16T05:33:50;14.40;99.90
1806;DHT22;901;48.142;11.516;2022-10-16T05:36:16;14.30;99.90
1806;DHT22;901;48.142;11.516;2022-10-16T05:38:43;14.40;99.90
1806;DHT22;901;48.142;11.516;2022-10-16T05:41:12;14.40;99.90
1806;DHT22;901;48.142;11.516;2022-10-16T05:43:38;14.40;99.90
1806;DHT22;901;48.142;11.516;2022-10-16T05:46:06;14.40;99.90
1806;DHT22;901;48.142;11.516;2022-10-16T05:48:33;14.40;99.90
1806;DHT22;901;48.142;11.516;2022-10-16T05:51:01;14.40;99.90
1806;DHT22;901;48.142;11.516;2022-10-16T05:53:29;14.40;99.90
1806;DHT22;901;48.142;11.516;2022-10-16T05:55:57;14.50;99.90
1806;DHT22;901;48.142;11.516;2022-10-16T05:58:27;14.50;99.90
1806;DHT22;901;48.142;11.516;2022-10-16T06:00:55;14.50;99.90
1806;DHT22;901;48.142;11.516;2022-10-16T06:03:22;14.40;99.90
1806;DHT22;901;48.142;11.516;2022-10-16T06:05:49;14.30;99.90
1806;DHT22;901;48.142;11.516;2022-10-16T06:08:16;14.20;99.90
1806;DHT22;901;48.142;11.516;2022-10-16T06:10:43;14.20;99.90
1806;DHT22;901;48.142;11.516;2022-10-16T06:13:10;14.20;99.90
1806;DHT22;901;48.142;11.516;2022-10-16T06:15:39;14.20;99.90
1806;DHT22;901;48.142;11.516;2022-10-16T06:18:07;14.10;99.90
1806;DHT22;901;48.142;11.516;2022-10-16T06:20:34;14.20;99.90
1806;DHT22;901;48.142;11.516;2022-10-16T06:23:01;14.20;99.90
1806;DHT22;901;48.142;11.516;2022-10-16T06:25:29;14.20;99.90
1806;DHT22;901;48.142;11.516;2022-10-16T06:27:56;14.20;99.90
1806;DHT22;901;48.142;11.516;2022-10-16T06:30:23;14.10;99.90
1806;DHT22;901;48.142;11.516;2022-10-16T06:32:51;14.10;99.90
1806;DHT22;901;48.142;11.516;2022-10-16T06:35:18;14.10;99.90
1806;DHT22;901;48.142;11.516;2022-10-16T06:37:44;14.10;99.90
1806;DHT22;901;48.142;11.516;2022-10-16T06:40:11;14.20;99.90
1806;DHT22;901;48.142;11.516;2022-10-16T06:42:40;14.20;99.90
1806;DHT22;901;48.142;11.516;2022-10-16T06:45:07;14.20;99.90
1806;DHT22;901;48.142;11.516;2022-10-16T06:47:34;14.20;99.90
1806;DHT22;901;48.142;11.516;2022-10-16T06:50:03;14.20;99.90
1806;DHT22;901;48.142;11.516;2022-10-16T06:52:32;14.30;99.90
1806;DHT22;901;48.142;11.516;2022-10-16T06:54:58;14.30;99.90
1806;DHT22;901;48.142;11.516;2022-10-16T06:57:25;14.30;99.90
1806;DHT22;901;48.142;11.516;2022-10-16T06:59:52;14.30;99.90
1806;DHT22;901;48.142;11.516;2022-10-16T07:02:19;14.40;99.90
1806;DHT22;901;48.142;11.516;2022-10-16T07:04:46;14.50;99.90
1806;DHT22;901;48.142;11.516;2022-10-16T07:07:14;14.50;99.90
1806;DHT22;901;48.142;11.516;2022-10-16T07:09:41;14.60;99.90
1806;DHT22;901;48.142;11.516;2022-10-16T07:12:07;14.70;99.90
1806;DHT22;901;48.142;11.516;2022-10-16T07:14:34;14.70;99.90
1806;DHT22;901;48.142;11.516;2022-10-16T07:17:01;14.80;99.90
1806;DHT22;901;48.142;11.516;2022-10-16T07:19:28;15.00;99.90
1806;DHT22;901;48.142;11.516;2022-10-16T07:21:55;15.10;99.90
1806;DHT22;901;48.142;11.516;2022-10-16T07:24:23;15.10;99.90
1806;DHT22;901;48.142;11.516;2022-10-16T07:26:50;15.20;99.90
1806;DHT22;901;48.142;11.516;2022-10-16T07:29:19;15.20;99.90
1806;DHT22;901;48.142;11.516;2022-10-16T07:31:47;15.20;99.90
1806;DHT22;901;48.142;11.516;2022-10-16T07:34:16;15.20;99.90
1806;DHT22;901;48.142;11.516;2022-10-16T07:36:44;15.20;99.90
1806;DHT22;901;48.142;11.516;2022-10-16T07:39:11;15.30;99.90
1806;DHT22;901;48.142;11.516;2022-10-16T07:41:39;15.40;99.90
1806;DHT22;901;48.142;11.516;2022-10-16T07:44:06;15.50;99.90
1806;DHT22;901;48.142;11.516;2022-10-16T07:46:33;15.60;99.90
1806;DHT22;901;48.142;11.516;2022-10-16T07:49:01;15.70;99.90
1806;DHT22;901;48.142;11.516;2022-10-16T07:51:28;15.80;99.90
1806;DHT22;901;48.142;11.516;2022-10-16T07:53:55;15.90;99.90
1806;DHT22;901;48.142;11.516;2022-10-16T07:56:22;16.10;99.90
1806;DHT22;901;48.142;11.516;2022-10-16T07:58:51;16.20;99.90
1806;DHT22;901;48.142;11.516;2022-10-16T08:01:18;16.30;99.90
1806;DHT22;901;48.142;11.516;2022-10-16T08:03:46;16.40;99.90
1806;DHT22;901;48.142;11.516;2022-10-16T08:06:14;16.60;99.90
1806;DHT22;901;48.142;11.516;2022-10-16T08:08:40;16.80;99.90
1806;DHT22;901;48.142;11.516;2022-10-16T08:11:07;17.00;99.90
1806;DHT22;901;48.142;11.516;2022-10-16T08:13:34;17.10;99.90
1806;DHT22;901;48.142;11.516;2022-10-16T08:16:03;17.40;99.90
1806;DHT22;901;48.142;11.516;2022-10-16T08:18:33;17.50;99.90
1806;DHT22;901;48.142;11.516;2022-10-16T08:21:01;17.70;99.90
1806;DHT22;901;48.142;11.516;2022-10-16T08:23:28;17.90;99.90
1806;DHT22;901;48.142;11.516;2022-10-16T08:25:55;18.10;99.90
1806;DHT22;901;48.142;11.516;2022-10-16T08:28:23;18.10;99.90
1806;DHT22;901;48.142;11.516;2022-10-16T08:30:49;18.30;99.90
1806;DHT22;901;48.142;11.516;2022-10-16T08:33:18;18.50;99.90
1806;DHT22;901;48.142;11.516;2022-10-16T08:35:50;18.60;99.90
1806;DHT22;901;48.142;11.516;2022-10-16T08:38:19;18.80;99.90
1806;DHT22;901;48.142;11.516;2022-10-16T08:40:46;18.90;99.90
1806;DHT22;901;48.142;11.516;2022-10-16T08:43:32;19.10;99.90
1806;DHT22;901;48.142;11.516;2022-10-16T08:46:15;19.30;99.90
1806;DHT22;901;48.142;11.516;2022-10-16T08:48:47;19.40;99.90
1806;DHT22;901;48.142;11.516;2022-10-16T08:51:20;19.60;99.90
1806;DHT22;901;48.142;11.516;2022-10-16T08:53:51;19.70;99.90
1806;DHT22;901;48.142;11.516;2022-10-16T08:56:19;19.80;99.90
1806;DHT22;901;48.142;11.516;2022-10-16T08:58:46;20.00;99.90
1806;DHT22;901;48.142;11.516;2022-10-16T09:01:15;20.10;99.90
1806;DHT22;901;48.142;11.516;2022-10-16T09:06:45;20.30;99.90
1806;DHT22;901;48.142;11.516;2022-10-16T09:09:34;20.50;99.90
1806;DHT22;901;48.142;11.516;2022-10-16T09:12:10;20.50;99.90
1806;DHT22;901;48.142;11.516;2022-10-16T09:14:49;20.70;99.90
1806;DHT22;901;48.142;11.516;2022-10-16T09:17:27;20.80;99.90
1806;DHT22;901;48.142;11.516;2022-10-16T09:20:10;20.90;99.90
1806;DHT22;901;48.142;11.516;2022-10-16T09:22:39;21.00;99.90
1806;DHT22;901;48.142;11.516;2022-10-16T09:25:12;21.00;99.90
1806;DHT22;901;48.142;11.516;2022-10-16T09:27:39;21.10;99.90
1806;DHT22;901;48.142;11.516;2022-10-16T09:30:12;21.20;99.90
1806;DHT22;901;48.142;11.516;2022-10-16T09:32:39;21.30;99.90
1806;DHT22;901;48.142;11.516;2022-10-16T09:35:14;21.50;99.90
1806;DHT22;901;48.142;11.516;2022-10-16T09:37:42;21.50;99.90
1806;DHT22;901;48.142;11.516;2022-10-16T09:40:13;21.60;99.90
1806;DHT22;901;48.142;11.516;2022-10-16T09:42:50;21.70;99.90
1806;DHT22;901;48.142;11.516;2022-10-16T09:45:21;21.80;99.90
1806;DHT22;901;48.142;11.516;2022-10-16T09:47:49;21.90;99.90
1806;DHT22;901;48.142;11.516;2022-10-16T09:50:23;21.90;99.90
1806;DHT22;901;48.142;11.516;2022-10-16T09:53:02;22.00;99.90
1806;DHT22;901;48.142;11.516;2022-10-16T09:55:29;22.10;99.90
1806;DHT22;901;48.142;11.516;2022-10-16T09:57:56;22.20;99.90
1806;DHT22;901;48.142;11.516;2022-10-16T10:00:24;22.30;99.90
1806;DHT22;901;48.142;11.516;2022-10-16T10:02:51;22.30;99.90
1806;DHT22;901;48.142;11.516;2022-10-16T10:05:22;22.40;99.90
1806;DHT22;901;48.142;11.516;2022-10-16T10:07:55;22.40;99.90
1806;DHT22;901;48.142;11.516;2022-10-16T10:10:24;22.50;99.90
1806;DHT22;901;48.142;11.516;2022-10-16T10:12:52;22.60;99.90
1806;DHT22;901;48.142;11.516;2022-10-16T10:15:19;22.70;99.90
1806;DHT22;901;48.142;11.516;2022-10-16T10:17:49;22.80;99.90
1806;DHT22;901;48.142;11.516;2022-10-16T10:20:25;22.90;99.90
1806;DHT22;901;48.142;11.516;2022-10-16T10:22:53;23.00;99.90
1806;DHT22;901;48.142;11.516;2022-10-16T10:25:39;23.10;99.90
1806;DHT22;901;48.142;11.516;2022-10-16T10:31:04;23.20;99.90
1806;DHT22;901;48.142;11.516;2022-10-16T10:33:41;23.30;99.90
1806;DHT22;901;48.142;11.516;2022-10-16T10:36:25;23.40;99.90
1806;DHT22;901;48.142;11.516;2022-10-16T10:38:57;23.50;99.90
1806;DHT22;901;48.142;11.516;2022-10-16T10:44:26;23.70;99.90
1806;DHT22;901;48.142;11.516;2022-10-16T10:47:00;23.80;99.90
1806;DHT22;901;48.142;11.516;2022-10-16T10:49:38;23.90;99.90
1806;DHT22;901;48.142;11.516;2022-10-16T10:52:26;24.00;99.90
1806;DHT22;901;48.142;11.516;2022-10-16T10:55:03;24.10;99.90
1806;DHT22;901;48.142;11.516;2022-10-16T10:57:40;24.10;99.90
1806;DHT22;901;48.142;11.516;2022-10-16T11:00:20;24.10;99.90
1806;DHT22;901;48.142;11.516;2022-10-16T11:02:53;24.20;99.90
1806;DHT22;901;48.142;11.516;2022-10-16T11:05:35;24.10;99.90
1806;DHT22;901;48.142;11.516;2022-10-16T11:08:10;24.00;99.90
1806;DHT22;901;48.142;11.516;2022-10-16T11:10:44;23.90;99.90
1806;DHT22;901;48.142;11.516;2022-10-16T11:13:26;24.00;99.90
1806;DHT22;901;48.142;11.516;2022-10-16T11:15:58;24.00;99.90
1806;DHT22;901;48.142;11.516;2022-10-16T11:18:30;24.10;99.90
1806;DHT22;901;48.142;11.516;2022-10-16T11:21:03;24.10;99.90
1806;DHT22;901;48.142;11.516;2022-10-16T11:23:37;24.10;99.90
1806;DHT22;901;48.142;11.516;2022-10-16T11:26:13;24.10;99.90
1806;DHT22;901;48.142;11.516;2022-10-16T11:28:43;24.10;99.90
1806;DHT22;901;48.142;11.516;2022-10-16T11:31:16;24.00;99.90
1806;DHT22;901;48.142;11.516;2022-10-16T11:33:47;24.10;99.90
1806;DHT22;901;48.142;11.516;2022-10-16T11:36:19;24.10;99.90
1806;DHT22;901;48.142;11.516;2022-10-16T11:38:54;24.20;99.90
1806;DHT22;901;48.142;11.516;2022-10-16T11:41:27;24.30;99.90
1806;DHT22;901;48.142;11.516;2022-10-16T11:44:05;24.40;99.90
1806;DHT22;901;48.142;11.516;2022-10-16T11:46:36;24.50;99.90
1806;DHT22;901;48.142;11.516;2022-10-16T11:49:10;24.60;99.90
1806;DHT22;901;48.142;11.516;2022-10-16T11:51:42;24.70;99.90
1806;DHT22;901;48.142;11.516;2022-10-16T11:54:18;24.80;99.90
1806;DHT22;901;48.142;11.516;2022-10-16T11:56:50;24.90;99.90
1806;DHT22;901;48.142;11.516;2022-10-16T11:59:23;24.90;99.90
1806;DHT22;901;48.142;11.516;2022-10-16T12:01:57;25.00;99.90
1806;DHT22;901;48.142;11.516;2022-10-16T12:04:31;25.00;99.90
1806;DHT22;901;48.142;11.516;2022-10-16T12:07:04;25.10;99.90
1806;DHT22;901;48.142;11.516;2022-10-16T12:09:38;25.10;99.90
1806;DHT22;901;48.142;11.516;2022-10-16T12:12:24;25.10;99.90
1806;DHT22;901;48.142;11.516;2022-10-16T12:15:00;25.20;99.90
1806;DHT22;901;48.142;11.516;2022-10-16T12:17:34;25.20;99.90
1806;DHT22;901;48.142;11.516;2022-10-16T12:20:20;25.10;99.90
1806;DHT22;901;48.142;11.516;2022-10-16T12:22:49;25.10;99.90
1806;DHT22;901;48.142;11.516;2022-10-16T12:25:24;25.00;99.90
1806;DHT22;901;48.142;11.516;2022-10-16T12:27:56;25.00;99.90
1806;DHT22;901;48.142;11.516;2022-10-16T12:30:25;25.00;99.90
1806;DHT22;901;48.142;11.516;2022-10-16T12:32:56;25.10;99.90
1806;DHT22;901;48.142;11.516;2022-10-16T12:35:26;25.20;99.90
1806;DHT22;901;48.142;11.516;2022-10-16T12:37:54;25.20;99.90
1806;DHT22;901;48.142;11.516;2022-10-16T12:40:34;25.20;99.90
1806;DHT22;901;48.142;11.516;2022-10-16T12:43:12;25.30;99.90
1806;DHT22;901;48.142;11.516;2022-10-16T12:45:39;25.30;99.90
1806;DHT22;901;48.142;11.516;2022-10-16T12:48:19;25.30;99.90
1806;DHT22;901;48.142;11.516;2022-10-16T12:50:46;25.30;99.90
1806;DHT22;901;48.142;11.516;2022-10-16T12:53:22;25.30;99.90
1806;DHT22;901;48.142;11.516;2022-10-16T12:55:59;25.20;99.90
1806;DHT22;901;48.142;11.516;2022-10-16T12:58:39;25.30;99.90
1806;DHT22;901;48.142;11.516;2022-10-16T13:01:11;25.30;99.90
1806;DHT22;901;48.142;11.516;2022-10-16T13:04:06;25.20;99.90
1806;DHT22;901;48.142;11.516;2022-10-16T13:06:41;25.10;99.90
1806;DHT22;901;48.142;11.516;2022-10-16T13:09:23;25.10;99.90
1806;DHT22;901;48.142;11.516;2022-10-16T13:12:21;25.20;99.90
1806;DHT22;901;48.142;11.516;2022-10-16T13:15:04;25.00;99.90
1806;DHT22;901;48.142;11.516;2022-10-16T13:17:39;25.00;99.90
1806;DHT22;901;48.142;11.516;2022-10-16T13:20:16;25.00;99.90
1806;DHT22;901;48.142;11.516;2022-10-16T13:22:52;25.00;99.90
1806;DHT22;901;48.142;11.516;2022-10-16T13:25:28;25.00;99.90
1806;DHT22;901;48.142;11.516;2022-10-16T13:28:00;25.10;99.90
1806;DHT22;901;48.142;11.516;2022-10-16T13:30:29;25.00;99.90
1806;DHT22;901;48.142;11.516;2022-10-16T13:33:00;25.10;99.90
1806;DHT22;901;48.142;11.516;2022-10-16T13:35:29;25.10;99.90
1806;DHT22;901;48.142;11.516;2022-10-16T13:38:12;25.20;99.90
1806;DHT22;901;48.142;11.516;2022-10-16T13:40:49;25.20;99.90
1806;DHT22;901;48.142;11.516;2022-10-16T13:43:19;25.20;99.90
1806;DHT22;901;48.142;11.516;2022-10-16T13:45:58;25.20;99.40
1806;DHT22;901;48.142;11.516;2022-10-16T13:48:25;25.10;99.50
1806;DHT22;901;48.142;11.516;2022-10-16T13:51:04;25.10;99.40
1806;DHT22;901;48.142;11.516;2022-10-16T13:53:33;25.10;99.40
1806;DHT22;901;48.142;11.516;2022-10-16T13:56:02;25.10;98.80
1806;DHT22;901;48.142;11.516;2022-10-16T13:58:30;24.90;98.80
1806;DHT22;901;48.142;11.516;2022-10-16T14:01:00;24.80;99.30
1806;DHT22;901;48.142;11.516;2022-10-16T14:03:28;24.70;99.40
1806;DHT22;901;48.142;11.516;2022-10-16T14:05:58;24.60;99.50
1806;DHT22;901;48.142;11.516;2022-10-16T14:08:27;24.60;99.30
1806;DHT22;901;48.142;11.516;2022-10-16T14:10:56;24.60;99.50
1806;DHT22;901;48.142;11.516;2022-10-16T14:13:31;24.60;99.40
1806;DHT22;901;48.142;11.516;2022-10-16T14:16:02;24.60;99.30
1806;DHT22;901;48.142;11.516;2022-10-16T14:18:31;24.80;99.40
1806;DHT22;901;48.142;11.516;2022-10-16T14:21:03;24.80;99.20
1806;DHT22;901;48.142;11.516;2022-10-16T14:23:39;24.80;99.30
1806;DHT22;901;48.142;11.516;2022-10-16T14:26:18;24.80;99.10
1806;DHT22;901;48.142;11.516;2022-10-16T14:28:48;24.80;98.90
1806;DHT22;901;48.142;11.516;2022-10-16T14:31:27;24.80;99.00
1806;DHT22;901;48.142;11.516;2022-10-16T14:33:55;24.80;98.90
1806;DHT22;901;48.142;11.516;2022-10-16T14:36:22;24.70;99.30
1806;DHT22;901;48.142;11.516;2022-10-16T14:38:57;24.70;99.20
1806;DHT22;901;48.142;11.516;2022-10-16T14:41:24;24.70;99.10
1806;DHT22;901;48.142;11.516;2022-10-16T14:43:54;24.80;98.80
1806;DHT22;901;48.142;11.516;2022-10-16T14:46:27;24.80;98.90
1806;DHT22;901;48.142;11.516;2022-10-16T14:48:59;24.70;99.20
1806;DHT22;901;48.142;11.516;2022-10-16T14:51:27;24.70;99.10
1806;DHT22;901;48.142;11.516;2022-10-16T14:53:53;24.60;99.20
1806;DHT22;901;48.142;11.516;2022-10-16T14:56:22;24.60;99.20
1806;DHT22;901;48.142;11.516;2022-10-16T14:58:52;24.60;99.50
1806;DHT22;901;48.142;11.516;2022-10-16T15:01:20;24.50;99.90
1806;DHT22;901;48.142;11.516;2022-10-16T15:03:47;24.30;99.90
1806;DHT22;901;48.142;11.516;2022-10-16T15:06:15;24.30;99.90
1806;DHT22;901;48.142;11.516;2022-10-16T15:08:42;24.20;99.90
1806;DHT22;901;48.142;11.516;2022-10-16T15:11:11;24.10;99.90
1806;DHT22;901;48.142;11.516;2022-10-16T15:13:38;24.10;99.90
1806;DHT22;901;48.142;11.516;2022-10-16T15:16:10;24.10;99.90
1806;DHT22;901;48.142;11.516;2022-10-16T15:18:37;24.00;99.90
1806;DHT22;901;48.142;11.516;2022-10-16T15:21:04;23.90;99.90
1806;DHT22;901;48.142;11.516;2022-10-16T15:23:31;23.80;99.90
1806;DHT22;901;48.142;11.516;2022-10-16T15:25:58;23.80;99.90
1806;DHT22;901;48.142;11.516;2022-10-16T15:28:25;23.70;99.90
1806;DHT22;901;48.142;11.516;2022-10-16T15:30:54;23.60;99.90
1806;DHT22;901;48.142;11.516;2022-10-16T15:33:25;23.50;99.90
1806;DHT22;901;48.142;11.516;2022-10-16T15:35:58;23.40;99.90
1806;DHT22;901;48.142;11.516;2022-10-16T15:38:26;23.30;99.90
1806;DHT22;901;48.142;11.516;2022-10-16T15:40:54;23.20;99.90
1806;DHT22;901;48.142;11.516;2022-10-16T15:43:21;23.10;99.90
1806;DHT22;901;48.142;11.516;2022-10-16T15:45:58;23.10;99.90
1806;DHT22;901;48.142;11.516;2022-10-16T15:48:27;23.00;99.90
1806;DHT22;901;48.142;11.516;2022-10-16T15:50:54;22.90;99.90
1806;DHT22;901;48.142;11.516;2022-10-16T15:53:21;22.70;99.90
1806;DHT22;901;48.142;11.516;2022-10-16T15:55:48;22.60;99.90
1806;DHT22;901;48.142;11.516;2022-10-16T15:58:15;22.50;99.90
1806;DHT22;901;48.142;11.516;2022-10-16T16:00:41;22.40;99.90
1806;DHT22;901;48.142;11.516;2022-10-16T16:03:08;22.30;99.90
1806;DHT22;901;48.142;11.516;2022-10-16T16:05:39;22.30;99.90
1806;DHT22;901;48.142;11.516;2022-10-16T16:08:06;22.10;99.90
1806;DHT22;901;48.142;11.516;2022-10-16T16:10:32;22.00;99.90
1806;DHT22;901;48.142;11.516;2022-10-16T16:12:59;21.90;99.90
1806;DHT22;901;48.142;11.516;2022-10-16T16:15:26;21.80;99.90
1806;DHT22;901;48.142;11.516;2022-10-16T16:17:53;21.80;99.90
1806;DHT22;901;48.142;11.516;2022-10-16T16:20:19;21.60;99.90
1806;DHT22;901;48.142;11.516;2022-10-16T16:22:48;21.40;99.90
1806;DHT22;901;48.142;11.516;2022-10-16T16:25:15;21.30;99.90
1806;DHT22;901;48.142;11.516;2022-10-16T16:27:41;21.20;99.90
1806;DHT22;901;48.142;11.516;2022-10-16T16:30:10;21.00;99.90
1806;DHT22;901;48.142;11.516;2022-10-16T16:32:37;21.00;99.90